Time;durP1;ratioP1;P1;durP2;ratioP2;P2;SDS_P1;SDS_P2;PMS_P1;PMS_P2;Temp;Humidity;BMP_temperature;BMP_pressure;BME280_temperature;BME280_humidity;BME280_pressure;Samples;Min_cycle;Max_cycle;Signal;HPM_P1;HPM_P2
2021/08/09 00:00:42;;;;;;;23.97;21.67;;;;;;;16.19;100.00;99250.91;2096126;28;20330;-78
2021/08/09 00:01:44;;;;;;;25.00;22.50;;;;;;;16.16;100.00;99252.34;2085620;28;20454;-77
2021/08/09 00:02:45;;;;;;;23.93;21.60;;;;;;;16.17;100.00;99251.22;2093027;28;20313;-78
2021/08/09 00:03:46;;;;;;;25.27;22.87;;;;;;;16.16;100.00;99241.59;2095929;28;20449;-78
2021/08/09 00:04:47;;;;;;;24.30;22.13;;;;;;;16.21;100.00;99249.44;2095967;28;20230;-78
2021/08/09 00:05:48;;;;;;;25.60;23.40;;;;;;;16.17;100.00;99248.53;2095901;28;20499;-77
2021/08/09 00:06:49;;;;;;;24.83;22.27;;;;;;;16.15;100.00;99245.38;2085688;28;20582;-78
2021/08/09 00:07:53;;;;;;;24.57;22.33;;;;;;;16.15;100.00;99239.97;2087767;28;20249;-78
2021/08/09 00:08:53;;;;;;;24.60;22.50;;;;;;;16.11;100.00;99228.31;2095777;28;20233;-78
2021/08/09 00:09:55;;;;;;;25.50;23.30;;;;;;;16.10;100.00;99230.22;2095889;28;20453;-78
2021/08/09 00:10:56;;;;;;;23.80;21.80;;;;;;;16.09;100.00;99217.09;2096235;28;20222;-78
2021/08/09 00:11:58;;;;;;;22.88;20.63;;;;;;;16.09;100.00;99217.88;2095811;28;20456;-78
2021/08/09 00:12:59;;;;;;;23.77;21.77;;;;;;;16.09;100.00;99230.53;2096143;28;20283;-78
2021/08/09 00:14:00;;;;;;;24.13;22.03;;;;;;;16.08;100.00;99229.75;2096768;28;20471;-78
2021/08/09 00:15:02;;;;;;;23.97;21.80;;;;;;;16.08;100.00;99237.84;2096831;28;20451;-78
2021/08/09 00:16:03;;;;;;;24.67;22.33;;;;;;;16.11;100.00;99236.38;2096823;28;20236;-78
2021/08/09 00:17:05;;;;;;;23.23;21.27;;;;;;;16.11;100.00;99236.38;2096159;28;20463;-78
2021/08/09 00:18:05;;;;;;;27.20;22.63;;;;;;;16.08;100.00;99229.75;2096023;28;20456;-79
2021/08/09 00:19:07;;;;;;;24.07;21.83;;;;;;;16.08;100.00;99231.66;2096849;28;20930;-79
2021/08/09 00:20:09;;;;;;;23.20;21.27;;;;;;;16.07;100.00;99232.75;2095468;28;20245;-78
2021/08/09 00:21:11;;;;;;;24.07;22.17;;;;;;;16.05;100.00;99235.00;2095959;28;20494;-77
2021/08/09 00:22:11;;;;;;;23.80;21.77;;;;;;;16.04;100.00;99230.72;2096777;28;20454;-77
2021/08/09 00:23:14;;;;;;;24.00;22.00;;;;;;;16.05;100.00;99229.59;2096802;28;20440;-78
2021/08/09 00:24:15;;;;;;;23.37;21.20;;;;;;;16.03;100.00;99229.94;2096679;28;20636;-78
2021/08/09 00:25:17;;;;;;;23.43;21.33;;;;;;;16.02;100.00;99236.44;2096725;28;20436;-78
2021/08/09 00:26:20;;;;;;;24.13;22.03;;;;;;;16.03;100.00;99248.00;2096756;28;20669;-78
2021/08/09 00:27:21;;;;;;;24.52;22.40;;;;;;;16.02;100.00;99257.97;2095942;28;20449;-78
2021/08/09 00:28:22;;;;;;;23.50;21.40;;;;;;;16.00;100.00;99273.66;2095742;28;20222;-78
2021/08/09 00:29:24;;;;;;;23.17;21.27;;;;;;;15.98;100.00;99277.78;2096727;28;20313;-77
2021/08/09 00:30:25;;;;;;;22.58;20.58;;;;;;;15.96;100.00;99274.63;2096625;28;20237;-78
2021/08/09 00:31:26;;;;;;;23.58;21.42;;;;;;;15.95;100.00;99267.69;2096013;28;22685;-77
2021/08/09 00:32:28;;;;;;;23.10;21.20;;;;;;;15.95;100.00;99267.69;2087560;28;20237;-77
2021/08/09 00:33:29;;;;;;;24.20;22.15;;;;;;;15.95;100.00;99262.28;2096114;28;20758;-78
2021/08/09 00:34:33;;;;;;;23.43;21.10;;;;;;;15.94;100.00;99261.50;2096716;28;20628;-78
2021/08/09 00:35:35;;;;;;;22.60;20.77;;;;;;;15.92;100.00;99257.56;2095870;28;20634;-77
2021/08/09 00:36:35;;;;;;;23.80;21.42;;;;;;;15.92;100.00;99257.56;2087623;28;20230;-77
2021/08/09 00:37:37;;;;;;;23.00;21.10;;;;;;;15.92;100.00;99262.97;2087427;28;20325;-78
2021/08/09 00:38:40;;;;;;;23.35;21.35;;;;;;;15.92;100.00;99260.25;2080706;28;20219;-78
2021/08/09 00:39:43;;;;;;;20.75;19.05;;;;;;;15.88;100.00;99252.03;2095741;28;20279;-78
2021/08/09 00:40:44;;;;;;;20.70;18.90;;;;;;;15.86;100.00;99253.50;2095841;28;20256;-78
2021/08/09 00:41:45;;;;;;;21.20;19.50;;;;;;;15.84;100.00;99259.19;2096008;28;20237;-77
2021/08/09 00:42:46;;;;;;;22.73;20.92;;;;;;;15.78;100.00;99247.81;2095876;28;20229;-78
2021/08/09 00:43:48;;;;;;;22.63;20.77;;;;;;;15.77;100.00;99257.00;2095915;28;20313;-78
2021/08/09 00:44:51;;;;;;;24.13;22.07;;;;;;;15.79;100.00;99265.53;2095902;28;20771;-78
2021/08/09 00:45:53;;;;;;;21.00;19.40;;;;;;;15.75;100.00;99270.00;2087285;28;20457;-78
2021/08/09 00:46:54;;;;;;;21.92;20.17;;;;;;;15.73;100.00;99277.63;2087576;28;20231;-78
2021/08/09 00:47:56;;;;;;;22.40;20.63;;;;;;;15.69;100.00;99276.69;2088483;28;20313;-78
2021/08/09 00:48:57;;;;;;;22.92;21.13;;;;;;;15.70;100.00;99272.88;2087011;28;20305;-79
2021/08/09 00:50:00;;;;;;;22.38;20.73;;;;;;;15.68;100.00;99275.09;2089188;28;20704;-78
2021/08/09 00:51:02;;;;;;;24.73;22.90;;;;;;;15.67;100.00;99278.13;2089002;28;20314;-78
2021/08/09 00:52:06;;;;;;;22.20;20.50;;;;;;;15.66;100.00;99277.34;2089146;28;20705;-78
2021/08/09 00:53:08;;;;;;;22.80;20.92;;;;;;;15.67;100.00;99273.53;2088949;28;20230;-78
2021/08/09 00:54:13;;;;;;;22.77;20.77;;;;;;;15.66;100.00;99269.25;2089380;28;21893;-78
2021/08/09 00:55:17;;;;;;;21.83;19.98;;;;;;;15.63;100.00;99266.41;2081983;28;20588;-78
2021/08/09 00:56:18;;;;;;;23.25;21.40;;;;;;;15.63;100.00;99272.59;2088952;28;20230;-78
2021/08/09 00:57:20;;;;;;;22.70;20.37;;;;;;;15.63;100.00;99277.97;2089207;28;20776;-78
2021/08/09 00:58:21;;;;;;;22.73;20.75;;;;;;;15.60;100.00;99270.53;2089095;28;20293;-78
2021/08/09 00:59:24;;;;;;;22.45;20.42;;;;;;;15.61;100.00;99264.06;2080586;28;20228;-78
2021/08/09 01:00:27;;;;;;;22.35;20.60;;;;;;;15.58;100.00;99263.91;2080894;28;20662;-78
2021/08/09 01:01:28;;;;;;;23.30;21.45;;;;;;;15.58;100.00;99274.66;2080833;28;20288;-78
2021/08/09 01:02:34;;;;;;;26.63;24.00;;;;;;;15.59;100.00;99268.16;2081192;28;20219;-78
2021/08/09 01:03:37;;;;;;;21.33;19.58;;;;;;;15.53;100.00;99260.25;2088821;28;20773;-77
2021/08/09 01:04:39;;;;;;;21.42;19.80;;;;;;;15.56;100.00;99261.53;2088874;28;20238;-78
2021/08/09 01:05:41;;;;;;;21.50;19.80;;;;;;;15.51;100.00;99250.94;2080765;28;20281;-78
2021/08/09 01:06:45;;;;;;;21.70;19.83;;;;;;;15.49;100.00;99255.88;2088971;28;20265;-77
2021/08/09 01:07:59;;;;;;;22.00;20.15;;;;;;;15.49;100.00;99263.94;2080869;28;20310;-78
2021/08/09 01:09:07;;;;;;;20.25;18.75;;;;;;;15.46;100.00;99256.50;2082200;28;20262;-78
2021/08/09 01:10:16;;;;;;;20.67;19.13;;;;;;;15.44;100.00;99261.41;2081393;28;20231;-78
2021/08/09 01:11:22;;;;;;;22.15;20.25;;;;;;;15.49;100.00;99263.94;2089203;28;20238;-79
2021/08/09 01:12:33;;;;;;;21.95;20.08;;;;;;;15.44;100.00;99254.13;2088496;28;20287;-78
2021/08/09 01:13:40;;;;;;;22.67;20.98;;;;;;;15.41;100.00;99254.78;2081217;28;20588;-78
2021/08/09 01:14:52;;;;;;;25.52;23.20;;;;;;;15.39;100.00;99272.38;2081172;28;20220;-78
2021/08/09 01:15:57;;;;;;;24.85;22.95;;;;;;;15.37;100.00;99275.34;2081917;28;20682;-78
2021/08/09 01:17:00;;;;;;;24.75;22.63;;;;;;;15.35;100.00;99268.72;2088745;28;20234;-78
2021/08/09 01:18:04;;;;;;;23.83;21.98;;;;;;;15.36;100.00;99273.78;2088847;28;20577;-78
2021/08/09 01:19:21;;;;;;;23.52;21.83;;;;;;;15.34;100.00;99269.84;2080986;28;20224;-78
2021/08/09 01:20:35;;;;;;;23.77;21.65;;;;;;;15.30;100.00;99268.91;2090342;28;20675;-77
2021/08/09 01:21:37;;;;;;;22.70;20.88;;;;;;;15.26;100.00;99274.91;2090662;28;20248;-78
2021/08/09 01:22:46;;;;;;;22.67;20.98;;;;;;;15.28;100.00;99278.06;2088593;28;20328;-79
2021/08/09 01:23:54;;;;;;;22.38;20.58;;;;;;;15.25;100.00;99278.72;2089845;28;20219;-78
2021/08/09 01:25:01;;;;;;;24.23;22.20;;;;;;;15.23;100.00;99269.41;2089250;28;20702;-78
2021/08/09 01:26:11;;;;;;;25.70;23.90;;;;;;;15.21;100.00;99266.25;2089485;28;20218;-78
2021/08/09 01:27:25;;;;;;;28.65;26.35;;;;;;;15.18;100.00;99264.97;2089581;28;20300;-78
2021/08/09 01:28:30;;;;;;;25.73;23.77;;;;;;;15.15;100.00;99262.94;2096691;28;20232;-77
2021/08/09 01:29:32;;;;;;;26.83;24.83;;;;;;;15.14;100.00;99261.38;2081794;28;20631;-77
2021/08/09 01:30:35;;;;;;;26.00;24.00;;;;;;;15.11;100.00;99272.75;2096541;28;20221;-78
2021/08/09 01:31:40;;;;;;;28.13;25.90;;;;;;;15.09;100.00;99264.22;2088896;28;20219;-77
2021/08/09 01:32:46;;;;;;;24.65;22.67;;;;;;;15.09;100.00;99269.59;2085303;28;20685;-78
2021/08/09 01:33:47;;;;;;;25.55;23.10;;;;;;;15.07;100.00;99268.34;2086540;28;20235;-78
2021/08/09 01:34:50;;;;;;;25.27;23.38;;;;;;;15.06;100.00;99272.94;2088870;28;20268;-78
2021/08/09 01:35:51;;;;;;;24.92;22.83;;;;;;;15.03;100.00;99265.53;2096911;28;20229;-78
2021/08/09 01:36:55;;;;;;;29.25;26.85;;;;;;;15.05;100.00;99265.19;2096617;28;20229;-78
2021/08/09 01:37:59;;;;;;;24.42;22.52;;;;;;;15.00;100.00;99274.19;2096765;28;20249;-77
2021/08/09 01:39:05;;;;;;;25.63;23.65;;;;;;;15.00;100.00;99271.50;2081689;28;20245;-78
2021/08/09 01:40:07;;;;;;;27.05;24.85;;;;;;;15.01;100.00;99275.78;2096636;28;20712;-78
2021/08/09 01:41:10;;;;;;;28.27;26.00;;;;;;;15.00;100.00;99268.84;2082364;28;20590;-77
2021/08/09 01:42:11;;;;;;;26.08;23.95;;;;;;;14.99;100.00;99275.31;2088834;28;20257;-78
2021/08/09 01:43:16;;;;;;;27.80;25.58;;;;;;;14.99;100.00;99278.00;2097063;28;20250;-78
2021/08/09 01:44:17;;;;;;;27.88;25.58;;;;;;;15.02;100.00;99282.72;2088885;28;20227;-78
2021/08/09 01:45:20;;;;;;;30.40;28.02;;;;;;;15.02;100.00;99285.41;2088543;28;20751;-77
2021/08/09 01:46:22;;;;;;;26.90;24.55;;;;;;;15.02;100.00;99293.47;2088940;28;20222;-78
2021/08/09 01:47:24;;;;;;;28.13;25.83;;;;;;;15.02;100.00;99290.78;2088392;28;20716;-78
2021/08/09 01:48:25;;;;;;;28.02;25.83;;;;;;;15.03;100.00;99299.63;2088665;28;20223;-78
2021/08/09 01:49:27;;;;;;;32.67;30.05;;;;;;;15.02;100.00;99293.47;2087271;28;20226;-78
2021/08/09 01:50:31;;;;;;;32.05;29.52;;;;;;;14.99;100.00;99291.44;2081461;28;20670;-78
2021/08/09 01:51:34;;;;;;;33.13;30.63;;;;;;;14.97;100.00;99282.91;2096171;28;20222;-78
2021/08/09 01:52:35;;;;;;;32.75;30.25;;;;;;;14.96;100.00;99289.41;2088624;28;20218;-78
2021/08/09 01:53:37;;;;;;;37.45;34.30;;;;;;;14.97;100.00;99294.44;2097032;28;20214;-79
2021/08/09 01:54:40;;;;;;;33.25;30.75;;;;;;;14.96;100.00;99289.41;2081864;28;20227;-78
2021/08/09 01:55:40;;;;;;;35.47;32.67;;;;;;;14.96;100.00;99282.13;2080319;28;20215;-78
2021/08/09 01:56:44;;;;;;;35.60;32.97;;;;;;;14.94;100.00;99280.84;2087564;28;20250;-78
2021/08/09 01:57:45;;;;;;;38.10;35.30;;;;;;;14.91;100.00;99273.44;2088548;28;20726;-78
2021/08/09 01:58:48;;;;;;;38.10;35.40;;;;;;;14.89;100.00;99278.34;2080436;28;20626;-78
2021/08/09 01:59:49;;;;;;;35.63;33.03;;;;;;;14.90;100.00;99278.03;2088633;28;20222;-78
2021/08/09 02:00:51;;;;;;;35.30;32.63;;;;;;;14.91;100.00;99289.56;2096772;28;20221;-78
2021/08/09 02:01:52;;;;;;;38.85;36.05;;;;;;;14.90;100.00;99288.75;2082361;28;20227;-78
2021/08/09 02:02:54;;;;;;;35.65;33.05;;;;;;;14.90;100.00;99287.97;2088175;28;20226;-78
2021/08/09 02:03:56;;;;;;;34.63;32.00;;;;;;;14.87;100.00;99289.41;2096790;28;20235;-78
2021/08/09 02:05:04;;;;;;;36.07;33.57;;;;;;;14.85;100.00;99288.91;2096589;28;20225;-78
2021/08/09 02:06:06;;;;;;;37.72;34.92;;;;;;;14.85;100.00;99290.81;2081195;28;20223;-78
2021/08/09 02:07:07;;;;;;;33.35;31.00;;;;;;;14.82;100.00;99291.47;2096304;28;20691;-76
2021/08/09 02:08:11;;;;;;;33.33;30.53;;;;;;;14.82;100.00;99291.47;2096703;28;20613;-77
2021/08/09 02:09:12;;;;;;;34.30;31.80;;;;;;;14.79;100.00;99297.47;2096814;28;20249;-78
2021/08/09 02:10:17;;;;;;;35.50;32.60;;;;;;;14.77;100.00;99289.75;2096682;28;20222;-78
2021/08/09 02:11:24;;;;;;;34.03;31.35;;;;;;;14.76;100.00;99303.47;2096790;28;20291;-78
2021/08/09 02:12:24;;;;;;;33.20;30.75;;;;;;;14.74;100.00;99306.47;2092621;28;20232;-78
2021/08/09 02:13:33;;;;;;;33.70;31.00;;;;;;;14.74;100.00;99314.53;2088433;28;20223;-78
2021/08/09 02:14:42;;;;;;;37.00;34.20;;;;;;;14.71;100.00;99317.88;2089738;28;20219;-78
2021/08/09 02:15:53;;;;;;;32.67;30.17;;;;;;;14.67;100.00;99316.91;2088986;28;20267;-78
2021/08/09 02:16:59;;;;;;;31.98;29.55;;;;;;;14.66;100.00;99323.38;2089079;28;20308;-77
2021/08/09 02:18:07;;;;;;;33.40;30.90;;;;;;;14.65;100.00;99319.13;2096736;28;20612;-78
2021/08/09 02:19:11;;;;;;;38.20;35.60;;;;;;;14.62;100.00;99323.25;2096219;28;20218;-78
2021/08/09 02:20:19;;;;;;;34.35;31.65;;;;;;;14.61;100.00;99328.94;2081899;28;20223;-78
2021/08/09 02:21:24;;;;;;;34.10;31.40;;;;;;;14.57;100.00;99326.06;2096326;28;20224;-78
2021/08/09 02:22:30;;;;;;;34.83;32.22;;;;;;;14.57;100.00;99327.97;2096218;28;20224;-78
2021/08/09 02:23:37;;;;;;;36.47;33.42;;;;;;;14.57;100.00;99336.81;2096585;28;20214;-78
2021/08/09 02:24:45;;;;;;;33.60;30.83;;;;;;;14.56;100.00;99345.97;2088659;28;20251;-79
2021/08/09 02:25:49;;;;;;;32.97;30.27;;;;;;;14.52;100.00;99347.72;2096678;28;20310;-79
2021/08/09 02:26:54;;;;;;;33.33;30.63;;;;;;;14.50;100.00;99351.81;2096617;28;20232;-78
2021/08/09 02:27:59;;;;;;;37.03;34.13;;;;;;;14.50;100.00;99349.13;2081851;28;20254;-78
2021/08/09 02:29:05;;;;;;;33.28;30.58;;;;;;;14.48;100.00;99354.81;2095660;28;20236;-78
2021/08/09 02:30:09;;;;;;;33.88;31.48;;;;;;;14.47;100.00;99349.75;2094256;28;20651;-78
2021/08/09 02:31:11;;;;;;;33.78;31.27;;;;;;;14.44;100.00;99345.78;2096568;28;20801;-78
2021/08/09 02:32:13;;;;;;;33.45;30.80;;;;;;;14.44;100.00;99359.22;2096555;28;20221;-77
2021/08/09 02:33:15;;;;;;;33.63;31.00;;;;;;;14.43;100.00;99360.31;2096712;28;20557;-78
2021/08/09 02:34:20;;;;;;;33.78;30.77;;;;;;;14.42;100.00;99361.38;2088252;28;20227;-78
2021/08/09 02:35:21;;;;;;;34.67;31.85;;;;;;;14.41;100.00;99362.50;2088751;28;20610;-78
2021/08/09 02:36:26;;;;;;;35.33;32.55;;;;;;;14.40;100.00;99366.28;2084555;28;20222;-79
2021/08/09 02:37:27;;;;;;;34.17;31.48;;;;;;;14.39;100.00;99367.41;2096341;28;20229;-78
2021/08/09 02:38:31;;;;;;;36.10;33.03;;;;;;;14.39;100.00;99370.88;2096448;28;20214;-77
2021/08/09 02:39:33;;;;;;;34.67;32.08;;;;;;;14.38;100.00;99368.50;2088474;28;20226;-78
2021/08/09 02:40:35;;;;;;;32.97;30.45;;;;;;;14.39;100.00;99370.09;2088239;28;20284;-77
2021/08/09 02:41:36;;;;;;;34.88;32.17;;;;;;;14.36;100.00;99370.72;2096216;28;20224;-78
2021/08/09 02:42:38;;;;;;;35.60;32.80;;;;;;;14.37;100.00;99374.97;2087701;28;20773;-78
2021/08/09 02:43:40;;;;;;;34.72;31.92;;;;;;;14.35;100.00;99375.31;2096503;28;20228;-78
2021/08/09 02:44:41;;;;;;;35.70;32.70;;;;;;;14.34;100.00;99375.63;2096396;28;20758;-78
2021/08/09 02:45:44;;;;;;;35.45;32.83;;;;;;;14.34;100.00;99380.97;2096572;28;20245;-78
2021/08/09 02:46:45;;;;;;;36.33;33.83;;;;;;;14.31;100.00;99378.91;2096552;28;20230;-77
2021/08/09 02:47:48;;;;;;;38.05;34.72;;;;;;;14.32;100.00;99380.47;2096404;28;20260;-78
2021/08/09 02:48:50;;;;;;;33.88;31.00;;;;;;;14.31;100.00;99379.69;2096454;28;20275;-77
2021/08/09 02:49:51;;;;;;;37.03;34.03;;;;;;;14.32;100.00;99388.53;2086012;28;20297;-78
2021/08/09 02:50:55;;;;;;;34.30;31.50;;;;;;;14.30;100.00;99377.31;2096129;28;20230;-78
2021/08/09 02:51:56;;;;;;;36.10;33.28;;;;;;;14.30;100.00;99385.38;2088078;28;20727;-78
2021/08/09 02:52:59;;;;;;;37.03;34.20;;;;;;;14.29;100.00;99391.84;2088153;28;20223;-78
2021/08/09 02:54:01;;;;;;;35.78;32.97;;;;;;;14.27;100.00;99384.13;2088278;28;20273;-77
2021/08/09 02:55:03;;;;;;;36.33;33.70;;;;;;;14.25;100.00;99380.97;2096212;28;20264;-78
2021/08/09 02:56:04;;;;;;;35.75;33.25;;;;;;;14.25;100.00;99389.00;2096256;28;20241;-78
2021/08/09 02:57:08;;;;;;;35.45;32.65;;;;;;;14.27;100.00;99399.44;2093912;28;20225;-78
2021/08/09 02:58:09;;;;;;;36.53;33.60;;;;;;;14.28;100.00;99392.97;2096422;28;20286;-78
2021/08/09 02:59:11;;;;;;;36.35;33.50;;;;;;;14.27;100.00;99394.06;2096312;28;20700;-77
2021/08/09 03:00:13;;;;;;;38.00;35.00;;;;;;;14.27;100.00;99399.44;2088008;28;20222;-79
2021/08/09 03:01:19;;;;;;;37.05;34.25;;;;;;;14.26;100.00;99397.84;2088045;28;20746;-78
2021/08/09 03:02:20;;;;;;;36.28;33.47;;;;;;;14.22;100.00;99394.19;2088411;28;20218;-78
2021/08/09 03:03:22;;;;;;;35.22;32.53;;;;;;;14.21;100.00;99398.00;2087928;28;20241;-77
2021/08/09 03:04:25;;;;;;;37.67;34.58;;;;;;;14.20;100.00;99405.25;2087757;28;20725;-79
2021/08/09 03:05:28;;;;;;;35.88;33.17;;;;;;;14.17;100.00;99408.56;2081222;28;20337;-78
2021/08/09 03:06:31;;;;;;;38.92;35.85;;;;;;;14.17;100.00;99415.81;2087868;28;20660;-78
2021/08/09 03:07:35;;;;;;;39.33;35.70;;;;;;;14.13;100.00;99413.75;2079981;28;20219;-78
2021/08/09 03:08:37;;;;;;;35.60;32.90;;;;;;;14.13;100.00;99410.28;2087967;28;20218;-78
2021/08/09 03:09:38;;;;;;;35.75;32.88;;;;;;;14.11;100.00;99413.28;2087645;28;20226;-77
2021/08/09 03:10:40;;;;;;;37.60;34.23;;;;;;;14.09;100.00;99410.13;2088199;28;20229;-78
2021/08/09 03:11:41;;;;;;;37.30;34.40;;;;;;;14.06;100.00;99409.94;2087835;28;20264;-78
2021/08/09 03:12:44;;;;;;;36.40;33.60;;;;;;;14.06;100.00;99413.41;2088169;28;20222;-78
2021/08/09 03:13:46;;;;;;;36.55;33.55;;;;;;;14.05;100.00;99409.13;2088671;28;20241;-78
2021/08/09 03:14:51;;;;;;;37.92;34.72;;;;;;;14.04;100.00;99418.28;2088745;28;20700;-79
2021/08/09 03:15:54;;;;;;;39.45;36.35;;;;;;;14.01;100.00;99418.91;2093851;28;20708;-78
2021/08/09 03:16:56;;;;;;;37.00;33.80;;;;;;;14.01;100.00;99418.91;2087935;28;20725;-78
2021/08/09 03:17:57;;;;;;;38.95;35.65;;;;;;;14.03;100.00;99419.41;2096143;28;20289;-78
2021/08/09 03:18:59;;;;;;;35.63;32.80;;;;;;;14.04;100.00;99423.66;2096160;28;20230;-79
2021/08/09 03:20:01;;;;;;;37.85;34.75;;;;;;;14.10;100.00;99422.44;2080635;28;20230;-78
2021/08/09 03:21:02;;;;;;;39.63;36.13;;;;;;;14.10;100.00;99419.75;2087868;28;20233;-78
2021/08/09 03:22:03;;;;;;;35.33;32.33;;;;;;;14.13;100.00;99411.06;2080203;28;20616;-78
2021/08/09 03:23:08;;;;;;;32.47;29.98;;;;;;;14.14;100.00;99411.84;2095728;28;20701;-77
2021/08/09 03:24:08;;;;;;;35.42;32.53;;;;;;;14.18;100.00;99415.50;2087786;28;20579;-78
2021/08/09 03:25:10;;;;;;;33.17;30.50;;;;;;;14.20;100.00;99415.97;2087333;28;20222;-78
2021/08/09 03:26:10;;;;;;;33.90;31.30;;;;;;;14.20;100.00;99415.19;2088114;28;20214;-78
2021/08/09 03:27:12;;;;;;;35.47;32.50;;;;;;;14.18;100.00;99417.41;2096210;28;20230;-77
2021/08/09 03:28:13;;;;;;;32.85;30.15;;;;;;;14.18;100.00;99420.09;2096053;28;20249;-78
2021/08/09 03:29:16;;;;;;;34.80;31.67;;;;;;;14.17;100.00;99426.56;2080676;28;20237;-78
2021/08/09 03:30:16;;;;;;;35.10;32.10;;;;;;;14.13;100.00;99426.38;2079739;28;20223;-78
2021/08/09 03:31:19;;;;;;;33.10;29.95;;;;;;;14.09;100.00;99420.84;2079700;28;20230;-77
2021/08/09 03:32:21;;;;;;;32.85;30.17;;;;;;;14.06;100.00;99415.28;2095863;28;20251;-78
2021/08/09 03:33:22;;;;;;;33.55;30.40;;;;;;;14.03;100.00;99416.72;2079301;28;20251;-77
2021/08/09 03:34:24;;;;;;;36.30;33.03;;;;;;;14.01;100.00;99421.59;2095724;28;20222;-77
2021/08/09 03:35:26;;;;;;;33.20;30.40;;;;;;;13.98;100.00;99424.88;2096068;28;20283;-78
2021/08/09 03:36:29;;;;;;;33.15;30.15;;;;;;;13.97;100.00;99423.31;2080965;28;20219;-78
2021/08/09 03:37:31;;;;;;;35.30;32.38;;;;;;;13.98;100.00;99424.88;2095954;28;20264;-78
2021/08/09 03:38:31;;;;;;;32.58;29.88;;;;;;;13.99;100.00;99425.69;2087901;28;20222;-78
2021/08/09 03:39:33;;;;;;;32.50;29.90;;;;;;;14.00;100.00;99430.75;2087876;28;20214;-78
2021/08/09 03:40:35;;;;;;;35.17;32.28;;;;;;;14.01;100.00;99426.19;2096165;28;20657;-77
2021/08/09 03:41:37;;;;;;;32.65;29.75;;;;;;;14.05;100.00;99424.44;2087968;28;20218;-77
2021/08/09 03:42:38;;;;;;;32.33;29.63;;;;;;;14.05;100.00;99429.81;2087494;28;20297;-77
2021/08/09 03:43:39;;;;;;;34.40;31.20;;;;;;;14.06;100.00;99432.19;2087901;28;20273;-77
2021/08/09 03:44:41;;;;;;;35.00;31.73;;;;;;;14.08;100.00;99432.69;2087812;28;20222;-78
2021/08/09 03:45:42;;;;;;;32.65;29.85;;;;;;;14.11;100.00;99424.00;2087628;28;20798;-77
2021/08/09 03:46:43;;;;;;;34.00;31.17;;;;;;;14.11;100.00;99429.38;2087638;28;20573;-78
2021/08/09 03:47:46;;;;;;;35.42;32.42;;;;;;;14.12;100.00;99425.59;2080569;28;20242;-78
2021/08/09 03:48:47;;;;;;;34.28;31.20;;;;;;;14.11;100.00;99426.69;2079713;28;20245;-78
2021/08/09 03:49:49;;;;;;;34.27;30.70;;;;;;;14.09;100.00;99418.16;2095692;28;20320;-78
2021/08/09 03:50:50;;;;;;;37.03;33.65;;;;;;;14.09;100.00;99422.75;2096030;28;20719;-77
2021/08/09 03:51:51;;;;;;;33.43;30.70;;;;;;;14.10;100.00;99422.44;2087752;28;20621;-78
2021/08/09 03:52:54;;;;;;;33.75;30.73;;;;;;;14.12;100.00;99422.91;2087297;28;20227;-78
2021/08/09 03:53:55;;;;;;;35.55;32.13;;;;;;;14.14;100.00;99423.38;2095849;28;20261;-77
2021/08/09 03:54:57;;;;;;;31.98;29.27;;;;;;;14.15;100.00;99429.53;2087665;28;20230;-79
2021/08/09 03:55:59;;;;;;;32.70;29.95;;;;;;;14.15;100.00;99430.31;2096042;28;20218;-77
2021/08/09 03:56:59;;;;;;;33.78;31.00;;;;;;;14.17;100.00;99426.56;2096018;28;20222;-78
2021/08/09 03:58:01;;;;;;;32.60;30.00;;;;;;;14.17;100.00;99430.03;2095973;28;20218;-78
2021/08/09 03:59:02;;;;;;;31.10;28.33;;;;;;;14.18;100.00;99431.63;2096051;28;20237;-78
2021/08/09 04:00:05;;;;;;;30.90;27.90;;;;;;;14.17;100.00;99421.97;2096817;28;20222;-77
2021/08/09 04:01:15;;;;;;;32.10;28.90;;;;;;;14.19;100.00;99433.19;2096417;28;20668;-78
2021/08/09 04:02:17;;;;;;;31.40;28.55;;;;;;;14.20;100.00;99437.47;2096070;28;20312;-78
2021/08/09 04:03:22;;;;;;;32.28;29.52;;;;;;;14.19;100.00;99440.44;2096082;28;20271;-78
2021/08/09 04:04:23;;;;;;;33.80;31.00;;;;;;;14.16;100.00;99436.50;2095685;28;20248;-77
2021/08/09 04:05:24;;;;;;;30.73;27.53;;;;;;;14.20;100.00;99437.47;2096057;28;20765;-78
2021/08/09 04:06:25;;;;;;;31.55;28.58;;;;;;;14.21;100.00;99438.25;2096848;28;20221;-77
2021/08/09 04:07:27;;;;;;;32.60;29.67;;;;;;;14.19;100.00;99440.44;2095805;28;20695;-78
2021/08/09 04:08:28;;;;;;;31.05;28.45;;;;;;;14.20;100.00;99431.31;2095962;28;20222;-78
2021/08/09 04:09:30;;;;;;;31.93;29.43;;;;;;;14.17;100.00;99435.41;2096420;28;20214;-78
2021/08/09 04:10:30;;;;;;;34.22;30.95;;;;;;;14.15;100.00;99433.00;2087712;28;20241;-77
2021/08/09 04:11:33;;;;;;;32.50;29.48;;;;;;;14.18;100.00;99438.88;2080217;28;20290;-78
2021/08/09 04:12:34;;;;;;;32.85;30.20;;;;;;;14.17;100.00;99445.34;2095584;28;20217;-78
2021/08/09 04:13:36;;;;;;;33.47;30.50;;;;;;;14.16;100.00;99441.88;2095981;28;20245;-78
2021/08/09 04:14:37;;;;;;;34.05;31.33;;;;;;;14.15;100.00;99438.38;2093461;28;20288;-77
2021/08/09 04:15:39;;;;;;;33.45;30.55;;;;;;;14.17;100.00;99448.03;2087630;28;20242;-78
2021/08/09 04:16:40;;;;;;;35.00;31.95;;;;;;;14.18;100.00;99444.25;2087641;28;20684;-77
2021/08/09 04:17:42;;;;;;;36.47;33.40;;;;;;;14.19;100.00;99435.09;2095964;28;20617;-78
2021/08/09 04:18:45;;;;;;;33.25;30.25;;;;;;;14.15;100.00;99441.06;2095927;28;20640;-78
2021/08/09 04:19:45;;;;;;;33.45;30.55;;;;;;;14.19;100.00;99440.44;2096114;28;20246;-78
2021/08/09 04:20:49;;;;;;;35.00;31.98;;;;;;;14.19;100.00;99435.88;2096016;28;20283;-78
2021/08/09 04:21:50;;;;;;;32.33;29.50;;;;;;;14.19;100.00;99440.44;2095854;28;20723;-78
2021/08/09 04:22:52;;;;;;;33.10;30.17;;;;;;;14.18;100.00;99433.50;2096595;28;20552;-78
2021/08/09 04:23:53;;;;;;;33.78;30.65;;;;;;;14.20;100.00;99442.03;2088938;28;20233;-78
2021/08/09 04:24:55;;;;;;;32.05;29.15;;;;;;;14.20;100.00;99442.03;2089251;28;20230;-78
2021/08/09 04:25:56;;;;;;;34.30;31.33;;;;;;;14.21;100.00;99438.25;2093954;28;20639;-77
2021/08/09 04:26:59;;;;;;;34.60;31.70;;;;;;;14.23;100.00;99442.19;2097486;28;20661;-77
2021/08/09 04:28:00;;;;;;;34.75;32.08;;;;;;;14.23;100.00;99444.09;2089197;28;20592;-77
2021/08/09 04:29:02;;;;;;;33.67;30.67;;;;;;;14.22;100.00;99445.97;2081742;28;20302;-77
2021/08/09 04:30:04;;;;;;;39.08;32.25;;;;;;;14.25;100.00;99450.75;2097040;28;20479;-78
2021/08/09 04:31:08;;;;;;;34.45;31.23;;;;;;;14.25;100.00;99452.63;2097897;28;20226;-77
2021/08/09 04:32:14;;;;;;;32.92;29.90;;;;;;;14.27;100.00;99450.44;2097264;28;20260;-77
2021/08/09 04:33:15;;;;;;;35.28;31.75;;;;;;;14.27;100.00;99455.81;2089804;28;20313;-78
2021/08/09 04:34:18;;;;;;;34.63;31.65;;;;;;;14.29;100.00;99456.28;2089148;28;20231;-78
2021/08/09 04:35:19;;;;;;;35.45;31.90;;;;;;;14.28;100.00;99450.13;2087093;28;20219;-78
2021/08/09 04:36:25;;;;;;;33.47;30.40;;;;;;;14.30;100.00;99450.59;2089178;28;20235;-78
2021/08/09 04:37:27;;;;;;;35.30;32.30;;;;;;;14.35;100.00;99450.47;2088964;28;20308;-77
2021/08/09 04:38:27;;;;;;;32.22;29.42;;;;;;;14.37;100.00;99458.19;2089230;28;20222;-81
2021/08/09 04:39:29;;;;;;;33.70;30.57;;;;;;;14.33;100.00;99452.66;2089237;28;20226;-78
2021/08/09 04:40:32;;;;;;;34.28;31.23;;;;;;;14.35;100.00;99455.03;2089143;28;20697;-78
2021/08/09 04:41:35;;;;;;;34.13;31.08;;;;;;;14.35;100.00;99460.41;2089509;28;20779;-79
2021/08/09 04:42:37;;;;;;;34.38;30.73;;;;;;;14.36;100.00;99459.31;2089193;28;20265;-78
2021/08/09 04:43:41;;;;;;;32.42;29.45;;;;;;;14.35;100.00;99455.03;2088780;28;20597;-78
2021/08/09 04:44:42;;;;;;;32.63;29.80;;;;;;;14.35;100.00;99458.50;2089340;28;20230;-78
2021/08/09 04:45:44;;;;;;;33.33;30.10;;;;;;;14.38;100.00;99459.78;2097354;28;20240;-78